Terminal Aerodrome Forecast
Issued by NWS

Home | Current Version | Previous Version | Text Only | Print | Product List | Glossary On
Versions: 1 2 3 4 5 6 7 8 9 10 11 12 13 14
861
FTUS43 KILX 250527
TAFCMI
TAF
KCMI 250527Z 2506/2606 18007KT P6SM BKN250
     FM251800 18011G19KT P6SM VCTS SCT050CB BKN250
     FM260300 18008KT P6SM SCT050 BKN120=

USA.gov is the U.S. government's official web portal to all federal, state and local government web resources and services.